LEVXLEST

Guest
Details From LEVX - Vigo
To LEST - Santiago
Flight Number -
Tags generated
Created
Modified
Stats Distance 41 nm / 76 km
Max Altitude 1,900 ft / 579 m
Waypoints 3
Social Downloads 4
Likes 0
Share VATSIM

Download

Looking for another format? Having issues loading an existing format? Contact us
Advertisement - Login to hide

Notes

Basic altitude profile: - Ascent Rate: 2500ft/min - Ascent Speed: 250kts - Cruise Altitude: 8000ft - Cruise Speed: 420kts - Descent Rate: 1500ft/min - Descent Speed: 250kts Options: - Use NATs: yes - Use PACOTS: yes - Use low airways: yes - Use high airways: yes

Route

LEVX VGO LEST

ID Type Via Altitude Latitude Longitude Leg Dist Tot Dist Heading (true) Name
O LEVX APT - 0 ft / 0 m 42.23189˚ -8.62677˚ - 0 nm - Vigo
VGO VOR - 1,900 ft / 579 m 42.32131˚ -8.60164˚ 5 nm 5 nm 12° / 12° VIGO VOR-DME
O LEST APT - 0 ft / 0 m 42.89780˚ -8.41569˚ 35 nm 41 nm 13° / 13° Santiago

Altitude Profile

Advertisement - Login to hide

LEVX

Details ICAO LEVX (VGO)
Name Vigo
Region Spain
Timezone Europe/Madrid (UTC+2.0)
Stats Elevation 855 ft / 261 m (AMSL)
Location 42.231894° -8.626774°
Runways 1
Magnetic Variation 2.333° W

METAR

LEVX 221830Z 28006KT 250V330 CAVOK 17/12 Q1015 NOSIG

Decode

TAF

TAF LEVX 221700Z 2218/2318 29010KT CAVOK TX25/2313Z TN12/2306Z BECMG 2219/2221 VRB05KT

Decode

Departure Runways

ID Width Length Bearing (true) Bearing (mag) Surface Threshold Offset Overrun Length
02 148 ft / 45 m 7,905 ft / 2,409 m 11.38° 13.71° Asphalt 0 ft / 0 m 164 ft / 50 m
20 148 ft / 45 m 7,905 ft / 2,409 m 191.38° 193.71° Asphalt 0 ft / 0 m 164 ft / 50 m

LEST

Details ICAO LEST (SCQ)
Name Santiago
Region Spain
Timezone Europe/Madrid (UTC+2.0)
Stats Elevation 1,169 ft / 356 m (AMSL)
Location 42.897797° -8.415691°
Runways 1
Magnetic Variation 2.313° W

METAR

LEST 221830Z 32005KT 9999 FEW035 21/13 Q1015 NOSIG

Decode

TAF

TAF LEST 221700Z 2218/2318 VRB05KT 9999 FEW025 TX27/2314Z TN11/2306Z PROB40 TEMPO 2218/2219 SCT025TCU PROB30 TEMPO 2218/2219 SHRA SCT025TCU PROB30 TEMPO 2303/2307 1500 BCFG BKN002 PROB30 TEMPO 2303/2306 0350 FG VV001

Decode

Destination Runways

ID Width Length Bearing (true) Bearing (mag) Surface Threshold Offset Overrun Length
17 148 ft / 45 m 10,509 ft / 3,203 m 166.04° 168.35° Asphalt 394 ft / 120 m 0 ft / 0 m
35 148 ft / 45 m 10,509 ft / 3,203 m 346.05° 348.36° Asphalt 0 ft / 0 m 197 ft / 60 m

Approach Navaids

Runway Type Ident Frequency Range Bearing (true) Bearing (mag) Slope Elevation
17 Localiser IGO 110.30 MHz 18 nm / 33 km 166.06° 168.37° - 1,171 ft / 357 m (AMSL)
17 Glidescope IGO 110.30 MHz 10 nm / 19 km 166.04° 168.36° 3.00° 1,171 ft / 357 m (AMSL)
17 DME IGO 110.30 MHz 18 nm / 33 km - - - 1,171 ft / 357 m (AMSL)
35 Localiser ISO 111.50 MHz 18 nm / 33 km 346.20° 348.51° - 1,197 ft / 365 m (AMSL)
35 Glidescope ISO 111.50 MHz 10 nm / 19 km 346.05° 348.36° 3.00° 1,196 ft / 365 m (AMSL)
35 DME ISO 111.50 MHz 18 nm / 33 km - - - 1,196 ft / 365 m (AMSL)

Popular Alternatives